Startpagina
METAR-TAF:

METAR-TAF

Vliegvelden :

Aeroport de Sabadell

Sabadell, Spanje

breedte: 41-31N, lengte: 002-06E, hoogte: 250 m

Actueel weer

Dit bericht is 15 minuten geleden gemaakt, om 20:00 UTC
Wind 3 kt uit het westen, variërend tussen het westzuidwesten en het noordwesten
Temperatuur 14°C
Vochtigheid 63%
Druk 1029 hPa
Zicht 10 km of meer
geen wolken onder 1500 m en geen cumulonimbus

METAR: LELL 232000Z AUTO 28003KT 240V310 CAVOK 14/07 Q1029

Tijdstip: 21:15 (20:15 UTC)

Verwachting

Dit bericht is 6 uur en het 15 minuten geleden gemaakt, om 14:00 UTC
Verwachting geldig van 23 om 15 UTC tot 24 om 15 UTC
Wind 7 kt uit het westzuidwesten
Zicht 10 km of meer
Weinig wolken op 3000 ft
Wijzigt naar
van 23 om 18 UTC tot 23 om 20 UTC
Wind 3 kt uit variabele richting
Tijdelijke
van 24 om 10 UTC tot 24 om 15 UTC
Wind 7 kt uit het zuidwesten

TAF: LELL 231400Z 2315/2415 25007KT 9999 FEW030 TX22/2413Z TN05/2406Z BECMG 2318/2320 VRB03KT TEMPO 2410/2415 23007KT

Waarnemingen en weersverwachtingen van meer dan 4000 vliegvelden (METAR en TAF).

De beschikbare stations zijn de gele en rode punten op de kaart.

Ga met uw muis naar het station om de naam te zien.

Klik dan om waarnemingen en weersverwachtingen te zien.

kaart wijzigen: klik op de groene knoppen met een zwart kruis om in te zoomen, op de groene knop met een streepje om uit te zoomen of op de groene pijlen voor aangrenzende kaarten.


METAR-TAF: